createdAt,value
2022-10-03T00:03:36.285Z,98067.78
2022-10-03T00:07:57.346Z,98070.06
2022-10-03T00:12:14.506Z,98087.41
2022-10-03T00:16:24.770Z,98090.03
2022-10-03T00:20:47.990Z,98096.25
2022-10-03T00:25:07.687Z,98096.78
2022-10-03T00:29:26.172Z,98101.19
2022-10-03T00:33:40.229Z,98102.34
2022-10-03T00:37:58.362Z,98104.31
2022-10-03T00:42:55.872Z,98103.16
2022-10-03T00:47:30.111Z,98111.03
2022-10-03T00:51:46.235Z,98115.59
2022-10-03T00:56:03.846Z,98115.16
2022-10-03T01:00:19.424Z,98110.56
2022-10-03T01:04:34.867Z,98118.28
2022-10-03T01:09:00.140Z,98115.00
2022-10-03T01:13:18.368Z,98119.59
2022-10-03T01:17:33.604Z,98124.19
2022-10-03T01:21:48.219Z,98127.47
2022-10-03T01:25:59.444Z,98119.97
2022-10-03T01:30:25.385Z,98121.28
2022-10-03T01:34:32.690Z,98127.84
2022-10-03T01:38:41.962Z,98127.38
2022-10-03T01:42:55.958Z,98129.31
2022-10-03T01:47:19.085Z,98134.06
2022-10-03T01:51:25.247Z,98130.47
2022-10-03T01:55:39.211Z,98130.66
2022-10-03T01:59:52.043Z,98137.69
2022-10-03T02:04:07.621Z,98142.91
2022-10-03T02:08:25.178Z,98153.22
2022-10-03T02:12:35.658Z,98153.38
2022-10-03T02:16:45.389Z,98152.91
2022-10-03T02:20:55.453Z,98151.41
2022-10-03T02:25:21.650Z,98155.19
2022-10-03T02:29:48.714Z,98157.97
2022-10-03T02:34:33.902Z,98163.53
2022-10-03T02:39:08.990Z,98177.63
2022-10-03T02:43:54.418Z,98188.09
2022-10-03T02:48:33.823Z,98190.03
2022-10-03T02:53:15.239Z,98185.13
2022-10-03T02:58:06.250Z,98197.75
2022-10-03T03:02:36.961Z,98201.16
2022-10-03T03:07:15.735Z,98208.88
2022-10-03T03:11:51.803Z,98198.56
2022-10-03T03:16:30.020Z,98219.16
2022-10-03T03:20:49.352Z,98211.63
2022-10-03T03:25:12.186Z,98223.56
2022-10-03T03:29:26.408Z,98226.97
2022-10-03T03:33:40.564Z,98234.34
2022-10-03T03:37:57.046Z,98239.34
2022-10-03T03:42:14.577Z,98247.03
2022-10-03T03:46:31.362Z,98248.47
2022-10-03T03:50:48.502Z,98251.72
2022-10-03T03:55:29.476Z,98254.97
2022-10-03T03:59:47.838Z,98255.28
2022-10-03T04:04:02.174Z,98263.28
2022-10-03T04:08:26.413Z,98266.72
2022-10-03T04:12:44.724Z,98262.16
2022-10-03T04:17:18.103Z,98258.56
2022-10-03T04:21:42.129Z,98266.09
2022-10-03T04:26:18.663Z,98256.44
2022-10-03T04:30:32.647Z,98270.03
2022-10-03T04:34:48.041Z,98276.56
2022-10-03T04:39:04.532Z,98274.47
2022-10-03T04:43:17.310Z,98280.19
2022-10-03T04:47:28.136Z,98284.78
2022-10-03T04:51:52.032Z,98283.66
2022-10-03T04:56:13.283Z,98280.88
2022-10-03T05:00:25.334Z,98282.84
2022-10-03T05:04:37.831Z,98279.25
2022-10-03T05:08:51.022Z,98283.66
2022-10-03T05:13:01.767Z,98285.47
2022-10-03T05:17:21.057Z,98294.25
2022-10-03T05:21:33.442Z,98295.25
2022-10-03T05:25:53.331Z,98297.53
2022-10-03T05:30:03.585Z,98295.13
2022-10-03T05:34:23.410Z,98303.34
2022-10-03T05:39:04.699Z,98317.25
2022-10-03T05:43:24.215Z,98321.69
2022-10-03T05:47:48.464Z,98333.31
2022-10-03T05:52:12.689Z,98341.50
2022-10-03T05:56:28.958Z,98343.63
2022-10-03T06:00:50.990Z,98344.94
2022-10-03T06:05:13.043Z,98349.22
2022-10-03T06:09:42.456Z,98345.16
2022-10-03T06:14:08.200Z,98353.31
2022-10-03T06:18:33.795Z,98363.00
2022-10-03T06:23:19.718Z,98364.50
2022-10-03T06:28:03.642Z,98367.44
2022-10-03T06:32:33.684Z,98363.34
2022-10-03T06:37:07.707Z,98373.41
2022-10-03T06:41:56.071Z,98368.47
2022-10-03T06:46:32.269Z,98378.28
2022-10-03T06:51:09.309Z,98385.19
2022-10-03T06:55:42.241Z,98373.34
2022-10-03T07:00:12.112Z,98378.91
2022-10-03T07:04:53.921Z,98383.78
2022-10-03T07:09:31.662Z,98384.19
2022-10-03T07:14:11.485Z,98390.38
2022-10-03T07:19:01.855Z,98389.47
2022-10-03T07:23:41.007Z,98390.72
2022-10-03T07:28:03.997Z,98398.41
2022-10-03T07:32:23.211Z,98397.88
2022-10-03T07:37:14.300Z,98410.59
2022-10-03T07:41:45.390Z,98409.38
2022-10-03T07:46:14.301Z,98410.50
2022-10-03T07:50:45.474Z,98416.00
2022-10-03T07:55:22.776Z,98426.19
2022-10-03T08:00:12.688Z,98410.34
2022-10-03T08:04:58.452Z,98417.03
2022-10-03T08:09:29.761Z,98423.00
2022-10-03T08:13:44.375Z,98427.50
2022-10-03T08:18:14.248Z,98430.75
2022-10-03T08:22:31.518Z,98430.50
2022-10-03T08:26:49.925Z,98433.69
2022-10-03T08:31:19.820Z,98434.09
2022-10-03T08:35:42.208Z,98426.84
2022-10-03T08:40:00.676Z,98428.53
2022-10-03T08:44:52.010Z,98435.88
2022-10-03T08:49:27.769Z,98433.00
2022-10-03T08:53:57.131Z,98441.16
2022-10-03T08:58:23.936Z,98435.56
2022-10-03T09:02:54.616Z,98433.03
2022-10-03T09:07:44.869Z,98438.03
2022-10-03T09:12:09.124Z,98432.38
2022-10-03T09:16:45.750Z,98432.31
2022-10-03T09:21:23.585Z,98430.75
2022-10-03T09:25:43.522Z,98428.84
2022-10-03T09:30:29.601Z,98429.59
2022-10-03T09:34:57.863Z,98431.97
2022-10-03T09:39:21.500Z,98423.97
2022-10-03T09:43:53.165Z,98426.91
2022-10-03T09:48:34.096Z,98437.38
2022-10-03T09:52:53.742Z,98434.44
2022-10-03T09:57:29.496Z,98424.94
2022-10-03T10:01:41.270Z,98416.97
2022-10-03T10:06:08.812Z,98419.44
2022-10-03T10:11:04.361Z,98416.31
2022-10-03T10:15:33.261Z,98413.03
2022-10-03T10:19:54.935Z,98426.91
2022-10-03T10:24:16.883Z,98414.31
2022-10-03T10:28:46.817Z,98416.22
2022-10-03T10:33:32.080Z,98423.69
2022-10-03T10:37:59.748Z,98429.47
2022-10-03T10:42:39.849Z,98428.59
2022-10-03T10:47:18.982Z,98430.94
2022-10-03T10:52:14.205Z,98432.63
2022-10-03T10:56:57.179Z,98413.91
2022-10-03T11:01:30.553Z,98414.00
2022-10-03T11:06:13.580Z,98421.78
2022-10-03T11:10:39.367Z,98407.22
2022-10-03T11:15:36.773Z,98414.84
2022-10-03T11:20:21.505Z,98405.66
2022-10-03T11:25:02.096Z,98406.84
2022-10-03T11:29:41.813Z,98412.34
2022-10-03T11:34:49.926Z,98405.63
2022-10-03T11:39:05.209Z,98401.81
2022-10-03T11:43:36.709Z,98400.75
2022-10-03T11:47:51.651Z,98383.66
2022-10-03T11:52:06.438Z,98393.09
2022-10-03T11:56:22.078Z,98396.06
2022-10-03T12:00:25.915Z,98392.09
2022-10-03T12:04:44.049Z,98387.66
2022-10-03T12:09:03.614Z,98394.19
2022-10-03T12:13:15.756Z,98381.78
2022-10-03T12:17:29.827Z,98384.22
2022-10-03T12:21:46.558Z,98380.81
2022-10-03T12:25:54.697Z,98382.03
2022-10-03T12:30:02.710Z,98383.84
2022-10-03T12:34:33.685Z,98386.09
2022-10-03T12:38:51.398Z,98382.88
2022-10-03T12:43:15.956Z,98376.59
2022-10-03T12:47:56.529Z,98374.16
2022-10-03T12:52:07.772Z,98370.88
2022-10-03T12:56:31.771Z,98366.91
2022-10-03T13:00:58.673Z,98372.84
2022-10-03T13:09:48.632Z,98377.72
2022-10-03T13:14:08.161Z,98393.78
2022-10-03T13:18:45.329Z,98382.09
2022-10-03T13:23:05.030Z,98363.06
2022-10-03T13:27:35.476Z,98398.28
2022-10-03T13:31:51.341Z,98380.19
2022-10-03T13:36:24.091Z,98386.34
2022-10-03T13:40:45.185Z,98400.41
2022-10-03T13:44:56.212Z,98385.88
2022-10-03T13:49:21.166Z,98392.97
2022-10-03T13:53:59.528Z,98398.06
2022-10-03T13:58:33.756Z,98403.84
2022-10-03T14:03:00.128Z,98391.34
2022-10-03T14:07:12.468Z,98401.78
2022-10-03T14:11:26.695Z,98394.44
2022-10-03T14:15:47.901Z,98382.59
2022-10-03T14:20:20.648Z,98380.56
2022-10-03T14:24:55.325Z,98397.03
2022-10-03T14:29:32.206Z,98382.59
2022-10-03T14:33:47.037Z,98393.59
2022-10-03T14:38:12.202Z,98380.78
2022-10-03T14:42:39.166Z,98386.03
2022-10-03T14:46:58.736Z,98382.59
2022-10-03T14:51:21.879Z,98376.59
2022-10-03T14:55:35.951Z,98383.25
2022-10-03T14:59:55.526Z,98367.28
2022-10-03T15:04:18.762Z,98377.59
2022-10-03T15:08:38.490Z,98376.69
2022-10-03T15:12:51.443Z,98361.50
2022-10-03T15:16:56.197Z,98385.47
2022-10-03T15:21:05.502Z,98375.81
2022-10-03T15:25:17.956Z,98391.53
2022-10-03T15:29:25.651Z,98388.06
2022-10-03T15:33:32.977Z,98347.84
2022-10-03T15:37:47.610Z,98352.69
2022-10-03T15:41:57.514Z,98375.53
2022-10-03T15:46:06.723Z,98357.38
2022-10-03T15:50:21.698Z,98382.63
2022-10-03T15:54:33.890Z,98374.41
2022-10-03T15:58:41.739Z,98399.53
2022-10-03T16:02:56.628Z,98398.34
2022-10-03T16:07:09.944Z,98394.84
2022-10-03T16:11:20.856Z,98377.78
2022-10-03T16:15:29.393Z,98376.28
2022-10-03T16:19:40.291Z,98417.25
2022-10-03T16:23:47.243Z,98387.22
2022-10-03T16:27:59.971Z,98377.91
2022-10-03T16:32:08.700Z,98424.47
2022-10-03T16:36:21.375Z,98415.00
2022-10-03T16:40:30.642Z,98404.72
2022-10-03T16:49:20.665Z,98410.13
2022-10-03T16:53:24.509Z,98412.63
2022-10-03T16:57:34.574Z,98417.59
2022-10-03T17:01:45.707Z,98414.81
2022-10-03T17:05:53.628Z,98421.06
2022-10-03T17:09:59.285Z,98421.75
2022-10-03T17:14:08.049Z,98421.16
2022-10-03T17:18:24.709Z,98429.38
2022-10-03T17:22:38.239Z,98423.16
2022-10-03T17:26:44.112Z,98429.41
2022-10-03T17:30:52.585Z,98435.13
2022-10-03T17:35:02.167Z,98443.81
2022-10-03T17:39:12.020Z,98435.78
2022-10-03T17:43:24.748Z,98425.81
2022-10-03T17:47:38.993Z,98433.50
2022-10-03T17:51:45.047Z,98436.41
2022-10-03T17:55:54.739Z,98448.00
2022-10-03T18:00:03.479Z,98450.94
2022-10-03T18:04:14.463Z,98452.44
2022-10-03T18:08:23.026Z,98449.31
2022-10-03T18:12:35.778Z,98447.19
2022-10-03T18:16:44.687Z,98453.25
2022-10-03T18:20:52.289Z,98452.72
2022-10-03T18:24:59.108Z,98449.91
2022-10-03T18:29:17.755Z,98441.53
2022-10-03T18:33:27.669Z,98440.84
2022-10-03T18:38:00.192Z,98437.06
2022-10-03T18:42:03.861Z,98432.28
2022-10-03T18:46:26.519Z,98435.06
2022-10-03T18:50:33.470Z,98431.44
2022-10-03T18:54:45.777Z,98437.00
2022-10-03T18:59:12.903Z,98439.63
2022-10-03T19:03:22.459Z,98440.44
2022-10-03T19:07:28.132Z,98452.06
2022-10-03T19:11:37.900Z,98447.94
2022-10-03T19:15:53.747Z,98449.06
2022-10-03T19:20:02.357Z,98454.63
2022-10-03T19:24:12.393Z,98448.38
2022-10-03T19:28:21.097Z,98446.03
2022-10-03T19:32:28.638Z,98438.75
2022-10-03T19:36:41.833Z,98444.03
2022-10-03T19:40:53.198Z,98447.94
2022-10-03T19:44:58.951Z,98453.63
2022-10-03T19:49:22.304Z,98459.34
2022-10-03T19:53:27.395Z,98452.63
2022-10-03T19:57:41.530Z,98455.41
2022-10-03T20:01:46.662Z,98447.47
2022-10-03T20:05:58.930Z,98452.00
2022-10-03T20:10:17.886Z,98456.88
2022-10-03T20:14:27.143Z,98455.53
2022-10-03T20:18:34.658Z,98458.56
2022-10-03T20:22:38.971Z,98468.44
2022-10-03T20:26:50.824Z,98454.91
2022-10-03T20:30:54.991Z,98464.41
2022-10-03T20:35:00.423Z,98459.34
2022-10-03T20:39:12.046Z,98455.03
2022-10-03T20:43:42.381Z,98456.53
2022-10-03T20:47:58.125Z,98445.59
2022-10-03T20:52:03.782Z,98437.91
2022-10-03T20:56:12.413Z,98438.75
2022-10-03T21:00:23.085Z,98437.91
2022-10-03T21:04:31.457Z,98439.53
2022-10-03T21:08:38.969Z,98430.63
2022-10-03T21:12:46.991Z,98436.50
2022-10-03T21:16:53.105Z,98431.84
2022-10-03T21:21:07.950Z,98434.97
2022-10-03T21:25:22.290Z,98420.66
2022-10-03T21:29:30.454Z,98423.81
2022-10-03T21:33:40.772Z,98424.50
2022-10-03T21:37:50.861Z,98419.16
2022-10-03T21:42:14.777Z,98432.03
2022-10-03T21:46:27.281Z,98431.72
2022-10-03T21:50:42.814Z,98428.19
2022-10-03T21:54:58.133Z,98415.78
2022-10-03T21:59:20.434Z,98414.00
2022-10-03T22:03:28.127Z,98413.88
2022-10-03T22:07:40.643Z,98406.03
2022-10-03T22:11:47.509Z,98405.91
2022-10-03T22:15:55.107Z,98408.66
2022-10-03T22:20:15.375Z,98410.28
2022-10-03T22:24:28.875Z,98410.44
2022-10-03T22:28:47.165Z,98402.59
2022-10-03T22:33:04.160Z,98393.28
2022-10-03T22:37:07.520Z,98391.66
2022-10-03T22:41:18.098Z,98390.97
2022-10-03T22:45:24.674Z,98390.97
2022-10-03T22:49:35.653Z,98387.25
2022-10-03T22:53:40.911Z,98391.06
2022-10-03T22:57:47.414Z,98386.22
2022-10-03T23:01:53.275Z,98387.28
2022-10-03T23:06:19.470Z,98388.19
2022-10-03T23:10:35.574Z,98380.31
2022-10-03T23:14:44.793Z,98376.00
2022-10-03T23:19:02.901Z,98375.38
2022-10-03T23:23:16.094Z,98369.56
2022-10-03T23:27:45.719Z,98375.84
2022-10-03T23:31:59.679Z,98367.41
2022-10-03T23:36:06.642Z,98378.22
2022-10-03T23:40:39.090Z,98376.66
2022-10-03T23:44:49.609Z,98374.53
2022-10-03T23:48:57.564Z,98370.16
2022-10-03T23:53:01.808Z,98362.59
2022-10-03T23:57:09.372Z,98360.91
